Time;durP1;ratioP1;P1;durP2;ratioP2;P2;SDS_P1;SDS_P2;PMS_P1;PMS_P2;Temp;Humidity;BMP_temperature;BMP_pressure;BME280_temperature;BME280_humidity;BME280_pressure;Samples;Min_cycle;Max_cycle;Signal;HPM_P1;HPM_P2
2022/06/07 02:00:06;;;;;;;;;;;;;;;17.45;62.00;99795.28;1085784;54;21255;-80
2022/06/07 02:01:10;;;;;;;;;;;;;;;17.45;62.08;99798.81;1087361;39;20337;-79
2022/06/07 02:02:14;;;;;;;;;;;;;;;17.56;62.53;99793.91;1086399;54;19973;-79
2022/06/07 02:03:15;;;;;;;;;;;;;;;17.53;62.65;99797.84;1086414;54;19947;-80
2022/06/07 02:04:21;;;;;;;;;;;;;;;17.57;62.17;99800.97;1086700;54;19950;-80
2022/06/07 02:05:22;;;;;;;;;;;;;;;17.50;62.37;99802.81;1086081;54;19950;-80
2022/06/07 02:06:26;;;;;;;;;;;;;;;17.49;62.55;99799.25;1086276;54;19999;-80
2022/06/07 02:07:29;;;;;;;;;;;;;;;17.50;63.14;99795.53;1086335;54;19950;-79
2022/06/07 02:08:31;;;;;;;;;;;;;;;17.52;63.08;99793.47;1086608;54;19939;-79
2022/06/07 02:09:35;;;;;;;;;;;;;;;17.50;62.89;99794.69;1089161;39;20337;-81
2022/06/07 02:10:36;;;;;;;;;;;;;;;17.48;63.03;99792.16;1087377;54;19934;-80
2022/06/07 02:11:41;;;;;;;;;;;;;;;17.58;62.71;99789.97;1086806;54;19957;-80
2022/06/07 02:12:45;;;;;;;;;;;;;;;17.58;62.35;99781.84;1085541;54;20042;-80
2022/06/07 02:13:46;;;;;;;;;;;;;;;17.64;62.52;99779.41;1086285;54;19947;-81
2022/06/07 02:14:50;;;;;;;;;;;;;;;17.66;62.77;99780.06;1086393;54;20033;-79
2022/06/07 02:15:51;;;;;;;;;;;;;;;17.61;62.79;99786.06;1085627;54;19947;-80
2022/06/07 02:16:58;;;;;;;;;;;;;;;17.68;62.79;99777.97;1085926;54;19939;-79
2022/06/07 02:17:59;;;;;;;;;;;;;;;17.68;62.68;99777.97;1085455;54;19943;-79
2022/06/07 02:19:03;;;;;;;;;;;;;;;17.68;63.00;99786.94;1085450;54;20441;-79
2022/06/07 02:20:07;;;;;;;;;;;;;;;17.65;62.76;99781.09;1085586;54;19938;-77
2022/06/07 02:21:09;;;;;;;;;;;;;;;17.59;63.58;99774.59;1085343;54;19963;-76
2022/06/07 02:22:13;;;;;;;;;;;;;;;17.60;63.18;99777.09;1086010;31;20436;-78
2022/06/07 02:23:15;;;;;;;;;;;;;;;17.65;62.94;99776.50;1085222;54;20002;-78
2022/06/07 02:24:18;;;;;;;;;;;;;;;17.74;62.92;99771.78;1086321;46;20538;-79
2022/06/07 02:25:22;;;;;;;;;;;;;;;17.75;62.85;99765.34;1086797;54;19957;-80
2022/06/07 02:26:25;;;;;;;;;;;;;;;17.82;62.35;99762.66;1086140;39;20341;-79
2022/06/07 02:27:29;;;;;;;;;;;;;;;17.83;62.61;99761.63;1085388;54;19946;-79
2022/06/07 02:28:33;;;;;;;;;;;;;;;17.84;62.61;99761.44;1087312;39;20424;-79
2022/06/07 02:29:38;;;;;;;;;;;;;;;17.86;62.09;99761.25;1090098;39;20611;-80
2022/06/07 02:30:41;;;;;;;;;;;;;;;17.89;61.94;99766.25;1085997;54;19960;-79
2022/06/07 02:31:48;;;;;;;;;;;;;;;17.88;61.66;99759.19;1086389;54;19939;-79
2022/06/07 02:32:55;;;;;;;;;;;;;;;17.90;61.48;99757.13;1086599;54;19975;-79
2022/06/07 02:33:57;;;;;;;;;;;;;;;17.82;62.63;99763.50;1086008;54;19971;-79
2022/06/07 02:35:03;;;;;;;;;;;;;;;17.85;62.08;99755.00;1088174;39;20338;-80
2022/06/07 02:36:08;;;;;;;;;;;;;;;17.86;61.85;99753.94;1087300;54;19949;-79
2022/06/07 02:37:14;;;;;;;;;;;;;;;17.86;61.65;99756.66;1087334;54;19995;-80
2022/06/07 02:38:16;;;;;;;;;;;;;;;17.88;61.55;99743.78;1085702;39;20450;-79
2022/06/07 02:39:20;;;;;;;;;;;;;;;17.92;61.67;99750.47;1085009;54;19947;-79
2022/06/07 02:40:23;;;;;;;;;;;;;;;17.89;61.71;99748.16;1085465;54;19995;-78
2022/06/07 02:41:28;;;;;;;;;;;;;;;17.80;61.66;99746.66;1085997;54;19962;-79
2022/06/07 02:42:31;;;;;;;;;;;;;;;17.59;62.15;99745.69;1086345;46;20459;-79
2022/06/07 02:43:36;;;;;;;;;;;;;;;17.53;62.72;99740.25;1085958;54;19938;-79
2022/06/07 02:44:37;;;;;;;;;;;;;;;17.51;61.98;99740.44;1086281;54;19975;-78
2022/06/07 02:45:41;;;;;;;;;;;;;;;17.43;62.14;99743.31;1085381;54;19951;-79
2022/06/07 02:46:43;;;;;;;;;;;;;;;17.41;62.14;99742.66;1085201;47;19938;-79
2022/06/07 02:47:47;;;;;;;;;;;;;;;17.44;62.76;99736.88;1086110;54;19946;-79
2022/06/07 02:48:52;;;;;;;;;;;;;;;17.36;62.26;99731.63;1086341;54;19950;-80
2022/06/07 02:49:57;;;;;;;;;;;;;;;17.28;62.84;99738.84;1086346;54;20050;-79
2022/06/07 02:50:58;;;;;;;;;;;;;;;17.28;62.78;99743.41;1086922;39;20688;-79
2022/06/07 02:52:02;;;;;;;;;;;;;;;17.14;63.34;99743.28;1085974;54;20004;-79
2022/06/07 02:53:04;;;;;;;;;;;;;;;17.17;63.17;99742.09;1086213;54;19954;-79
2022/06/07 02:54:08;;;;;;;;;;;;;;;17.09;63.39;99739.53;1086461;39;20433;-79
2022/06/07 02:55:10;;;;;;;;;;;;;;;17.08;63.71;99741.38;1085234;54;19975;-79
2022/06/07 02:56:15;;;;;;;;;;;;;;;17.13;63.33;99741.63;1086271;31;20492;-79
2022/06/07 02:57:17;;;;;;;;;;;;;;;17.08;63.38;99745.94;1085436;39;20396;-79
2022/06/07 02:58:21;;;;;;;;;;;;;;;17.06;63.49;99746.13;1085034;54;19953;-79
2022/06/07 02:59:26;;;;;;;;;;;;;;;17.08;63.72;99749.47;1085133;54;19939;-80
2022/06/07 03:00:28;;;;;;;;;;;;;;;17.12;63.51;99749.91;1085191;54;19957;-80
2022/06/07 03:01:32;;;;;;;;;;;;;;;17.05;63.37;99743.63;1085571;39;20689;-79
2022/06/07 03:02:34;;;;;;;;;;;;;;;17.07;63.57;99752.38;1084373;54;19946;-79
2022/06/07 03:03:38;;;;;;;;;;;;;;;17.05;63.75;99743.63;1084718;54;19974;-79
2022/06/07 03:04:44;;;;;;;;;;;;;;;17.05;64.10;99749.84;1085296;54;19971;-79
2022/06/07 03:05:48;;;;;;;;;;;;;;;17.06;63.93;99750.72;1084930;54;19950;-79
2022/06/07 03:06:51;;;;;;;;;;;;;;;16.99;64.21;99751.50;1084508;54;19971;-78
2022/06/07 03:07:56;;;;;;;;;;;;;;;16.95;63.97;99749.38;1084950;54;19947;-79
2022/06/07 03:08:57;;;;;;;;;;;;;;;16.97;63.89;99756.25;1085120;54;19942;-78
2022/06/07 03:10:01;;;;;;;;;;;;;;;16.89;64.19;99750.94;1085185;46;19946;-78
2022/06/07 03:11:04;;;;;;;;;;;;;;;16.99;64.06;99753.34;1085202;54;19950;-79
2022/06/07 03:12:08;;;;;;;;;;;;;;;16.98;63.89;99754.38;1084752;54;20476;-79
2022/06/07 03:13:10;;;;;;;;;;;;;;;17.05;63.75;99746.34;1085341;54;19947;-79
2022/06/07 03:14:16;;;;;;;;;;;;;;;17.03;63.74;99753.78;1085034;54;20022;-78
2022/06/07 03:15:17;;;;;;;;;;;;;;;17.02;63.57;99744.88;1085167;54;19947;-79
2022/06/07 03:16:22;;;;;;;;;;;;;;;17.06;63.35;99742.59;1085554;54;19946;-80
2022/06/07 03:17:24;;;;;;;;;;;;;;;17.13;63.08;99747.03;1085930;54;19946;-80
2022/06/07 03:18:28;;;;;;;;;;;;;;;17.06;63.14;99735.31;1088480;39;20360;-80
2022/06/07 03:19:30;;;;;;;;;;;;;;;17.08;63.10;99741.38;1085903;54;19946;-79
2022/06/07 03:20:37;;;;;;;;;;;;;;;17.05;63.07;99744.44;1086017;54;19957;-79
2022/06/07 03:21:39;;;;;;;;;;;;;;;17.05;63.18;99744.44;1085594;54;19969;-81
2022/06/07 03:22:45;;;;;;;;;;;;;;;17.17;63.10;99736.69;1086428;46;19954;-79
2022/06/07 03:23:49;;;;;;;;;;;;;;;17.25;62.85;99735.69;1085902;54;19947;-80
2022/06/07 03:24:52;;;;;;;;;;;;;;;17.21;62.68;99740.63;1085487;54;19952;-78
2022/06/07 03:26:05;;;;;;;;;;;;;;;17.21;62.87;99745.22;1089259;39;20503;-80
2022/06/07 03:27:07;;;;;;;;;;;;;;;17.27;62.60;99741.72;1085744;54;19966;-79
2022/06/07 03:28:11;;;;;;;;;;;;;;;17.18;62.55;99746.44;1086128;39;20359;-79
2022/06/07 03:29:14;;;;;;;;;;;;;;;17.14;62.93;99747.88;1084998;54;20461;-79
2022/06/07 03:30:18;;;;;;;;;;;;;;;17.19;62.60;99745.44;1085570;54;19947;-79
2022/06/07 03:31:19;;;;;;;;;;;;;;;17.20;62.34;99744.38;1085728;54;19957;-77
2022/06/07 03:32:24;;;;;;;;;;;;;;;17.32;62.13;99742.00;1085912;54;19981;-76
2022/06/07 03:33:25;;;;;;;;;;;;;;;17.39;62.01;99750.97;1085902;54;19947;-77
2022/06/07 03:34:29;;;;;;;;;;;;;;;17.37;61.84;99746.81;1085420;54;19992;-77
2022/06/07 03:35:32;;;;;;;;;;;;;;;17.43;61.84;99736.03;1085935;54;19975;-77
2022/06/07 03:36:40;;;;;;;;;;;;;;;17.49;61.40;99744.38;1085137;54;19950;-78
2022/06/07 03:37:44;;;;;;;;;;;;;;;17.52;61.50;99738.59;1085380;54;19967;-80
2022/06/07 03:38:47;;;;;;;;;;;;;;;17.50;61.42;99736.06;1086372;54;19942;-83
2022/06/07 03:39:50;;;;;;;;;;;;;;;17.53;61.41;99735.69;1085902;54;19946;-78
2022/06/07 03:40:56;;;;;;;;;;;;;;;17.54;61.10;99736.50;1085467;54;19946;-79
2022/06/07 03:41:57;;;;;;;;;;;;;;;17.54;60.97;99737.34;1085467;54;19953;-79
2022/06/07 03:43:05;;;;;;;;;;;;;;;17.57;61.41;99742.34;1085469;54;20010;-79
2022/06/07 03:44:08;;;;;;;;;;;;;;;17.59;61.16;99737.59;1085814;54;19958;-79
2022/06/07 03:45:11;;;;;;;;;;;;;;;17.58;60.98;99744.03;1084779;54;19953;-79
2022/06/07 03:46:18;;;;;;;;;;;;;;;17.55;61.58;99741.72;1086430;54;19974;-79
2022/06/07 03:47:20;;;;;;;;;;;;;;;17.58;61.29;99741.31;1085451;54;19947;-80
2022/06/07 03:48:25;;;;;;;;;;;;;;;17.62;61.26;99744.47;1085598;54;19954;-79
2022/06/07 03:49:26;;;;;;;;;;;;;;;17.64;61.32;99746.97;1085554;54;19954;-79
2022/06/07 03:50:31;;;;;;;;;;;;;;;17.64;60.95;99741.56;1086622;54;19983;-78
2022/06/07 03:51:36;;;;;;;;;;;;;;;17.66;61.04;99742.22;1085458;54;19947;-78
2022/06/07 03:52:41;;;;;;;;;;;;;;;17.69;60.80;99747.19;1085399;54;19947;-80
2022/06/07 03:53:46;;;;;;;;;;;;;;;17.66;61.02;99739.50;1085390;54;19946;-78
2022/06/07 03:54:49;;;;;;;;;;;;;;;17.59;60.87;99739.47;1085530;54;19938;-78
2022/06/07 03:55:56;;;;;;;;;;;;;;;17.53;60.96;99741.09;1086076;54;19947;-79
2022/06/07 03:56:57;;;;;;;;;;;;;;;17.55;61.43;99733.63;1088354;54;19943;-79
2022/06/07 03:58:03;;;;;;;;;;;;;;;17.57;61.07;99739.66;1088662;46;19935;-79
2022/06/07 03:59:04;;;;;;;;;;;;;;;17.61;60.96;99737.41;1088426;54;19943;-80
2022/06/07 04:00:10;;;;;;;;;;;;;;;17.65;60.77;99740.53;1088379;54;20563;-80
2022/06/07 04:01:15;;;;;;;;;;;;;;;17.64;60.88;99741.56;1087995;54;19949;-79
2022/06/07 04:02:18;;;;;;;;;;;;;;;17.65;61.10;99744.06;1088068;54;19942;-80
2022/06/07 04:03:21;;;;;;;;;;;;;;;17.59;61.04;99751.09;1088285;46;19946;-79
2022/06/07 04:04:26;;;;;;;;;;;;;;;17.48;61.63;99743.53;1087331;46;20433;-78
2022/06/07 04:05:27;;;;;;;;;;;;;;;17.56;61.50;99747.97;1085420;54;19950;-79
2022/06/07 04:06:34;;;;;;;;;;;;;;;17.59;61.22;99750.28;1085626;54;20033;-79
2022/06/07 04:08:57;;;;;;;;;;;;;;;17.65;60.83;99741.38;1086361;54;19946;-79
2022/06/07 04:09:58;;;;;;;;;;;;;;;17.65;60.58;99748.66;1087384;54;19946;-79
2022/06/07 04:11:04;;;;;;;;;;;;;;;17.64;60.77;99741.56;1087191;46;19950;-80
2022/06/07 04:12:06;;;;;;;;;;;;;;;17.62;60.77;99739.91;1087167;54;19946;-80
2022/06/07 04:13:09;;;;;;;;;;;;;;;17.62;60.51;99748.00;1087333;54;19957;-79
2022/06/07 04:14:13;;;;;;;;;;;;;;;17.64;60.52;99745.09;1087196;54;19946;-81
2022/06/07 04:15:14;;;;;;;;;;;;;;;17.62;60.36;99748.00;1086633;54;19947;-79
2022/06/07 04:16:19;;;;;;;;;;;;;;;17.64;60.70;99753.19;1086283;54;20468;-79
2022/06/07 04:17:20;;;;;;;;;;;;;;;17.66;60.58;99755.72;1086624;54;19938;-79
2022/06/07 04:18:25;;;;;;;;;;;;;;;17.64;60.44;99757.78;1085459;54;20030;-80
2022/06/07 04:19:29;;;;;;;;;;;;;;;17.65;60.79;99756.75;1087200;54;19977;-81
2022/06/07 04:20:32;;;;;;;;;;;;;;;17.66;60.30;99756.56;1087200;54;19939;-80
2022/06/07 04:21:38;;;;;;;;;;;;;;;17.66;60.60;99755.72;1087012;39;20376;-81
2022/06/07 04:22:39;;;;;;;;;;;;;;;17.54;60.99;99761.69;1086197;39;20106;-80
2022/06/07 04:23:44;;;;;;;;;;;;;;;17.59;60.50;99752.97;1086963;54;19951;-79
2022/06/07 04:24:48;;;;;;;;;;;;;;;17.63;60.53;99759.63;1087641;39;20424;-79
2022/06/07 04:25:52;;;;;;;;;;;;;;;17.58;60.46;99754.81;1087097;54;19923;-79
2022/06/07 04:26:54;;;;;;;;;;;;;;;17.61;60.53;99757.16;1087106;54;19951;-81
2022/06/07 04:27:58;;;;;;;;;;;;;;;17.58;60.57;99754.81;1086986;54;19950;-80
2022/06/07 04:29:03;;;;;;;;;;;;;;;17.59;60.45;99756.50;1087093;54;20485;-81
2022/06/07 04:30:05;;;;;;;;;;;;;;;17.60;60.69;99752.78;1087940;31;20445;-82
2022/06/07 04:31:13;;;;;;;;;;;;;;;17.58;60.71;99760.22;1088695;39;20469;-82
2022/06/07 04:32:16;;;;;;;;;;;;;;;17.51;60.87;99770.16;1088403;39;20445;-80
2022/06/07 04:33:22;;;;;;;;;;;;;;;17.47;60.80;99766.22;1086709;39;20218;-79
2022/06/07 04:34:24;;;;;;;;;;;;;;;17.50;60.89;99768.50;1086401;54;19947;-81
2022/06/07 04:35:28;;;;;;;;;;;;;;;17.54;60.87;99768.94;1086588;54;19973;-81
2022/06/07 04:36:32;;;;;;;;;;;;;;;17.52;61.02;99769.13;1087057;54;19938;-80
2022/06/07 04:37:37;;;;;;;;;;;;;;;17.53;60.90;99760.00;1086611;54;20524;-81
2022/06/07 04:38:38;;;;;;;;;;;;;;;17.54;60.69;99764.38;1085849;54;19953;-80
2022/06/07 04:39:43;;;;;;;;;;;;;;;17.50;61.26;99765.78;1086291;54;19986;-79
2022/06/07 04:40:47;;;;;;;;;;;;;;;17.51;60.91;99774.75;1085949;54;20002;-81
2022/06/07 04:41:51;;;;;;;;;;;;;;;17.52;61.25;99777.25;1086302;54;20430;-80
2022/06/07 04:42:56;;;;;;;;;;;;;;;17.48;61.27;99775.97;1086009;54;19971;-80
2022/06/07 04:43:58;;;;;;;;;;;;;;;17.48;61.22;99780.53;1086094;54;19946;-81
2022/06/07 04:45:02;;;;;;;;;;;;;;;17.47;61.25;99777.03;1088218;31;20478;-80
2022/06/07 04:46:05;;;;;;;;;;;;;;;17.45;61.56;99781.78;1086061;54;19994;-79
2022/06/07 04:47:09;;;;;;;;;;;;;;;17.42;61.82;99782.16;1086964;54;20490;-80
2022/06/07 04:48:16;;;;;;;;;;;;;;;17.40;61.79;99782.38;1087298;54;19962;-79
2022/06/07 04:49:17;;;;;;;;;;;;;;;17.29;62.32;99777.50;1086840;54;19947;-82
2022/06/07 04:50:22;;;;;;;;;;;;;;;17.34;62.38;99774.19;1086762;54;19939;-80
2022/06/07 04:51:25;;;;;;;;;;;;;;;17.34;62.26;99774.19;1087084;54;19962;-81
2022/06/07 04:52:28;;;;;;;;;;;;;;;17.37;62.07;99771.94;1086320;54;19950;-79
2022/06/07 04:53:31;;;;;;;;;;;;;;;17.36;62.32;99772.97;1087065;54;19939;-79
2022/06/07 04:54:37;;;;;;;;;;;;;;;17.36;62.66;99774.84;1087088;54;19950;-80
2022/06/07 04:55:38;;;;;;;;;;;;;;;17.40;62.40;99774.25;1087385;39;20360;-80
2022/06/07 04:56:46;;;;;;;;;;;;;;;17.37;62.50;99777.34;1086877;47;20515;-80
2022/06/07 04:57:47;;;;;;;;;;;;;;;17.28;62.98;99773.97;1086737;54;20488;-79
2022/06/07 04:58:52;;;;;;;;;;;;;;;17.30;62.75;99771.88;1087373;31;20384;-80
2022/06/07 04:59:56;;;;;;;;;;;;;;;17.32;62.65;99771.72;1087244;54;20014;-80
2022/06/07 05:01:01;;;;;;;;;;;;;;;17.33;62.92;99772.53;1087365;54;19953;-81
2022/06/07 05:02:04;;;;;;;;;;;;;;;17.21;63.57;99772.22;1087400;47;20054;-79
2022/06/07 05:03:08;;;;;;;;;;;;;;;17.11;63.69;99776.09;1086194;39;20400;-78
2022/06/07 05:04:11;;;;;;;;;;;;;;;17.05;63.97;99782.25;1085530;54;19953;-79
2022/06/07 05:05:16;;;;;;;;;;;;;;;17.04;64.21;99780.63;1086205;54;19947;-79
2022/06/07 05:06:18;;;;;;;;;;;;;;;17.03;64.29;99780.78;1085745;54;19953;-79
2022/06/07 05:07:22;;;;;;;;;;;;;;;17.08;63.99;99787.28;1087323;39;20641;-79
2022/06/07 05:08:24;;;;;;;;;;;;;;;17.12;63.94;99783.19;1084687;54;19955;-79
2022/06/07 05:09:29;;;;;;;;;;;;;;;17.20;63.71;99787.59;1086561;54;20477;-79
2022/06/07 05:10:33;;;;;;;;;;;;;;;17.25;63.46;99782.44;1086238;54;20038;-79
2022/06/07 05:11:52;;;;;;;;;;;;;;;17.29;63.60;99783.72;1086965;54;19983;-80
2022/06/07 05:12:59;;;;;;;;;;;;;;;17.30;63.39;99788.09;1087823;54;20579;-78
2022/06/07 05:14:02;;;;;;;;;;;;;;;17.36;62.95;99788.34;1088237;54;19954;-79
2022/06/07 05:15:08;;;;;;;;;;;;;;;17.38;63.11;99786.31;1088258;54;19974;-80
2022/06/07 05:16:10;;;;;;;;;;;;;;;17.35;62.92;99792.91;1093475;47;19933;-82
2022/06/07 05:17:15;;;;;;;;;;;;;;;17.42;62.91;99801.06;1088193;54;19949;-80
2022/06/07 05:18:20;;;;;;;;;;;;;;;17.45;62.96;99800.69;1088576;47;19942;-79
2022/06/07 05:19:22;;;;;;;;;;;;;;;17.52;62.50;99798.88;1087435;54;19946;-79
2022/06/07 05:20:27;;;;;;;;;;;;;;;17.54;62.36;99802.22;1086165;54;19950;-81
2022/06/07 05:21:28;;;;;;;;;;;;;;;17.55;62.52;99798.47;1086222;54;20450;-80
2022/06/07 05:22:33;;;;;;;;;;;;;;;17.57;62.29;99793.69;1086425;54;19939;-80
2022/06/07 05:23:35;;;;;;;;;;;;;;;17.60;62.09;99796.00;1086074;54;19947;-79
2022/06/07 05:24:39;;;;;;;;;;;;;;;17.68;62.16;99803.16;1086131;54;19950;-79
2022/06/07 05:25:44;;;;;;;;;;;;;;;17.72;62.12;99792.78;1085146;54;19973;-80
2022/06/07 05:26:50;;;;;;;;;;;;;;;17.59;62.40;99802.44;1086236;54;19950;-80
2022/06/07 05:27:52;;;;;;;;;;;;;;;17.69;62.06;99803.97;1086162;54;19981;-80
2022/06/07 05:29:00;;;;;;;;;;;;;;;17.72;61.72;99803.59;1086518;54;20002;-80
2022/06/07 05:30:03;;;;;;;;;;;;;;;17.73;61.59;99797.16;1086696;39;20437;-78
2022/06/07 05:31:07;;;;;;;;;;;;;;;17.72;61.47;99793.59;1086434;54;20091;-80
2022/06/07 05:32:08;;;;;;;;;;;;;;;17.80;61.45;99800.72;1086087;54;19973;-80
2022/06/07 05:33:15;;;;;;;;;;;;;;;17.84;61.42;99801.16;1086326;54;19947;-79
2022/06/07 05:34:16;;;;;;;;;;;;;;;17.76;61.12;99794.03;1085830;54;19950;-79
2022/06/07 05:35:20;;;;;;;;;;;;;;;17.80;60.92;99802.59;1086784;54;19957;-80
2022/06/07 05:36:24;;;;;;;;;;;;;;;17.77;60.82;99801.97;1086635;54;20026;-78
2022/06/07 05:37:28;;;;;;;;;;;;;;;17.68;61.20;99803.16;1086033;54;19947;-78
2022/06/07 05:38:31;;;;;;;;;;;;;;;17.76;60.83;99804.84;1086008;54;19971;-79
2022/06/07 05:39:37;;;;;;;;;;;;;;;17.76;60.94;99816.50;1086197;54;19950;-80
2022/06/07 05:40:40;;;;;;;;;;;;;;;17.67;60.70;99812.28;1086239;54;19938;-79
2022/06/07 05:41:45;;;;;;;;;;;;;;;17.65;60.91;99813.53;1085828;54;19947;-79
2022/06/07 05:42:50;;;;;;;;;;;;;;;17.67;60.65;99812.28;1085908;46;19962;-79
2022/06/07 05:43:51;;;;;;;;;;;;;;;17.57;61.16;99807.22;1086007;54;19947;-79
2022/06/07 05:44:59;;;;;;;;;;;;;;;17.70;60.84;99813.75;1086071;54;20002;-79
2022/06/07 05:46:01;;;;;;;;;;;;;;;17.62;60.37;99812.88;1086318;39;20335;-78
2022/06/07 05:47:06;;;;;;;;;;;;;;;17.67;60.46;99814.13;1087029;46;20025;-79
2022/06/07 05:48:09;;;;;;;;;;;;;;;17.56;60.85;99808.25;1086135;54;20492;-79
2022/06/07 05:49:15;;;;;;;;;;;;;;;17.60;60.97;99804.13;1085886;54;19958;-78
2022/06/07 05:50:17;;;;;;;;;;;;;;;17.66;60.77;99805.19;1086011;54;19946;-78
2022/06/07 05:51:22;;;;;;;;;;;;;;;17.73;60.92;99810.66;1086421;47;19950;-79
2022/06/07 05:52:27;;;;;;;;;;;;;;;17.65;60.33;99806.22;1086759;54;19951;-80
2022/06/07 05:53:29;;;;;;;;;;;;;;;17.57;60.46;99811.78;1087170;54;19957;-79
2022/06/07 05:54:34;;;;;;;;;;;;;;;17.57;60.47;99806.38;1086788;54;19981;-80
2022/06/07 05:55:37;;;;;;;;;;;;;;;17.55;60.73;99803.88;1086660;54;19946;-80
2022/06/07 05:56:41;;;;;;;;;;;;;;;17.62;60.07;99806.63;1087498;46;19954;-80
2022/06/07 05:57:49;;;;;;;;;;;;;;;17.75;59.97;99801.31;1086998;39;20356;-79
2022/06/07 05:58:52;;;;;;;;;;;;;;;17.83;59.57;99803.03;1084454;54;20033;-78
2022/06/07 06:00:11;;;;;;;;;;;;;;;17.95;59.28;99805.19;1087471;54;19957;-83
2022/06/07 06:01:15;;;;;;;;;;;;;;;17.98;59.51;99818.31;1095320;31;20585;-83
2022/06/07 06:02:19;;;;;;;;;;;;;;;18.02;59.05;99808.78;1088192;54;19963;-80
2022/06/07 06:03:20;;;;;;;;;;;;;;;17.91;59.32;99813.69;1088223;54;19943;-80
2022/06/07 06:04:24;;;;;;;;;;;;;;;17.89;59.53;99814.94;1087929;54;21977;-82
2022/06/07 06:05:26;;;;;;;;;;;;;;;17.92;59.52;99814.50;1089209;39;20334;-81
2022/06/07 06:06:30;;;;;;;;;;;;;;;18.07;59.17;99817.13;1087968;54;19951;-82
2022/06/07 06:07:34;;;;;;;;;;;;;;;18.18;58.99;99813.88;1088483;54;19942;-82
2022/06/07 06:11:09;;;;;;;;;;;;;;;18.28;58.77;99812.66;1088255;54;19942;-84
2022/06/07 06:12:13;;;;;;;;;;;;;;;18.27;58.90;99822.66;1089437;31;20417;-81
2022/06/07 06:13:14;;;;;;;;;;;;;;;18.22;59.04;99814.28;1087483;54;20417;-80
2022/06/07 06:14:18;;;;;;;;;;;;;;;18.20;59.16;99822.63;1086211;54;19946;-80
2022/06/07 06:15:20;;;;;;;;;;;;;;;18.32;58.89;99820.19;1086287;54;19950;-82
2022/06/07 06:16:27;;;;;;;;;;;;;;;18.36;58.65;99815.19;1087260;54;19943;-81
2022/06/07 06:17:31;;;;;;;;;;;;;;;18.32;58.52;99814.75;1087539;54;19939;-81
2022/06/07 06:18:32;;;;;;;;;;;;;;;18.30;58.93;99821.41;1088016;54;19970;-80
2022/06/07 06:19:36;;;;;;;;;;;;;;;18.29;58.78;99809.75;1087981;54;19956;-82
2022/06/07 06:20:37;;;;;;;;;;;;;;;18.36;58.61;99815.19;1088487;39;20458;-81
2022/06/07 06:21:43;;;;;;;;;;;;;;;18.35;58.68;99814.38;1087695;54;20539;-81
2022/06/07 06:22:47;;;;;;;;;;;;;;;18.34;59.06;99817.25;1087875;54;19954;-83
2022/06/07 06:23:48;;;;;;;;;;;;;;;18.40;58.81;99811.88;1088099;54;19950;-83
2022/06/07 06:24:52;;;;;;;;;;;;;;;18.37;58.39;99811.44;1087687;54;20555;-81
2022/06/07 06:25:53;;;;;;;;;;;;;;;18.38;57.95;99808.53;1087704;54;19943;-80
2022/06/07 06:26:58;;;;;;;;;;;;;;;18.37;58.54;99809.56;1089231;31;20616;-83
2022/06/07 06:28:02;;;;;;;;;;;;;;;18.43;58.41;99813.34;1088062;54;19938;-79
2022/06/07 06:29:03;;;;;;;;;;;;;;;18.39;58.92;99801.28;1091259;39;20494;-84
2022/06/07 06:30:08;;;;;;;;;;;;;;;18.35;58.65;99811.66;1088500;54;20032;-84
2022/06/07 06:31:11;;;;;;;;;;;;;;;18.50;58.62;99806.09;1088172;54;20631;-84
2022/06/07 06:32:17;;;;;;;;;;;;;;;18.65;57.94;99802.38;1088156;54;19991;-83
2022/06/07 06:33:19;;;;;;;;;;;;;;;18.76;58.05;99804.50;1091367;46;19943;-81
2022/06/07 06:34:23;;;;;;;;;;;;;;;18.80;57.94;99803.03;1088996;46;20025;-83
2022/06/07 06:35:24;;;;;;;;;;;;;;;18.87;57.64;99803.06;1088683;54;19942;-82
2022/06/07 06:36:29;;;;;;;;;;;;;;;18.89;57.08;99797.47;1088812;46;19939;-81
2022/06/07 06:37:30;;;;;;;;;;;;;;;18.83;57.16;99797.22;1098313;39;20149;-83
2022/06/07 06:38:34;;;;;;;;;;;;;;;18.80;57.19;99802.22;1088520;54;19946;-84
2022/06/07 06:39:39;;;;;;;;;;;;;;;18.74;57.76;99808.47;1089429;39;20329;-81
2022/06/07 06:40:40;;;;;;;;;;;;;;;18.65;57.02;99811.38;1090745;39;20127;-81
2022/06/07 06:41:46;;;;;;;;;;;;;;;18.81;56.96;99804.72;1088085;54;19953;-81
2022/06/07 06:42:47;;;;;;;;;;;;;;;18.68;57.16;99807.41;1089478;46;19957;-83
2022/06/07 06:43:52;;;;;;;;;;;;;;;18.71;57.13;99809.69;1088093;54;19942;-80
2022/06/07 06:44:56;;;;;;;;;;;;;;;18.55;57.01;99814.44;1087956;54;20018;-81
2022/06/07 06:46:02;;;;;;;;;;;;;;;18.56;57.22;99809.88;1088173;54;19950;-84
2022/06/07 06:47:07;;;;;;;;;;;;;;;18.45;57.56;99807.75;1087935;54;19987;-82
2022/06/07 06:48:12;;;;;;;;;;;;;;;18.47;57.69;99805.66;1087584;54;20465;-83
2022/06/07 06:49:15;;;;;;;;;;;;;;;18.42;57.89;99808.97;1087683;54;19953;-81
2022/06/07 06:50:20;;;;;;;;;;;;;;;18.45;57.98;99808.56;1088021;54;19957;-82
2022/06/07 06:51:25;;;;;;;;;;;;;;;18.47;57.61;99806.50;1088228;54;19950;-80
2022/06/07 06:52:26;;;;;;;;;;;;;;;18.61;57.44;99803.84;1088355;54;19946;-86
2022/06/07 06:53:30;;;;;;;;;;;;;;;18.64;58.00;99811.53;1089132;39;20311;-81
2022/06/07 06:54:33;;;;;;;;;;;;;;;18.82;57.24;99803.69;1088215;54;19946;-84
2022/06/07 06:55:43;;;;;;;;;;;;;;;18.88;56.88;99802.03;1088019;54;19923;-83
2022/06/07 06:56:49;;;;;;;;;;;;;;;18.95;56.72;99810.19;1088189;54;19973;-83
2022/06/07 06:57:50;;;;;;;;;;;;;;;19.05;56.46;99805.22;1088160;46;19958;-83
2022/06/07 06:58:54;;;;;;;;;;;;;;;19.22;56.07;99804.81;1088148;46;19962;-81
2022/06/07 06:59:58;;;;;;;;;;;;;;;19.33;55.63;99804.19;1087578;54;19930;-84
2022/06/07 07:01:00;;;;;;;;;;;;;;;19.29;55.87;99802.94;1088125;54;19957;-81
2022/06/07 07:02:04;;;;;;;;;;;;;;;19.17;55.68;99805.44;1088302;54;20670;-81
2022/06/07 07:03:05;;;;;;;;;;;;;;;19.21;55.85;99803.13;1088198;54;19950;-85
2022/06/07 07:04:13;;;;;;;;;;;;;;;19.39;55.86;99797.94;1088213;54;19927;-83
2022/06/07 07:05:15;;;;;;;;;;;;;;;19.58;55.42;99798.97;1087444;54;19942;-84
2022/06/07 07:06:19;;;;;;;;;;;;;;;19.69;55.09;99800.22;1088089;54;19923;-81
2022/06/07 07:07:23;;;;;;;;;;;;;;;19.63;54.99;99792.94;1088409;54;19926;-82
2022/06/07 07:08:25;;;;;;;;;;;;;;;19.69;54.97;99789.34;1089115;46;19927;-82
2022/06/07 07:09:29;;;;;;;;;;;;;;;19.73;54.84;99787.06;1088442;54;19979;-84
2022/06/07 07:10:32;;;;;;;;;;;;;;;19.73;54.69;99796.03;1088406;54;20501;-85
2022/06/07 07:11:38;;;;;;;;;;;;;;;19.65;55.43;99798.94;1088298;54;19927;-84
2022/06/07 07:12:39;;;;;;;;;;;;;;;19.70;55.15;99793.75;1088361;54;19987;-87
2022/06/07 07:13:44;;;;;;;;;;;;;;;19.88;54.94;99790.41;1088720;54;19930;-86
2022/06/07 07:14:49;;;;;;;;;;;;;;;19.94;54.46;99791.41;1089080;46;19965;-87
2022/06/07 07:15:50;;;;;;;;;;;;;;;20.10;54.49;99792.84;1088578;54;19950;-87
2022/06/07 07:16:55;;;;;;;;;;;;;;;20.03;53.74;99784.72;1088494;54;19927;-85
2022/06/07 07:17:57;;;;;;;;;;;;;;;20.22;53.47;99796.56;1090412;46;19943;-84
2022/06/07 07:19:03;;;;;;;;;;;;;;;20.25;53.49;99796.13;1092226;46;19999;-84
2022/06/07 07:20:07;;;;;;;;;;;;;;;20.04;53.46;99799.13;1088388;54;19950;-82
2022/06/07 07:21:14;;;;;;;;;;;;;;;20.04;53.88;99791.81;1090696;46;19942;-84
2022/06/07 07:22:16;;;;;;;;;;;;;;;20.09;53.76;99805.59;1089546;39;20511;-83
2022/06/07 07:23:25;;;;;;;;;;;;;;;20.22;53.59;99793.84;1088467;54;19986;-85
2022/06/07 07:24:29;;;;;;;;;;;;;;;20.24;53.46;99799.03;1088373;54;19942;-85
2022/06/07 07:26:35;;;;;;;;;;;;;;;20.43;52.89;99791.88;1087845;54;19946;-85
2022/06/07 07:27:37;;;;;;;;;;;;;;;20.45;52.54;99789.75;1088217;54;20003;-86
2022/06/07 07:28:41;;;;;;;;;;;;;;;20.20;53.17;99790.50;1088015;54;19997;-82
2022/06/07 07:29:46;;;;;;;;;;;;;;;20.36;53.26;99800.06;1088351;54;20599;-83
2022/06/07 07:30:50;;;;;;;;;;;;;;;20.64;52.49;99804.31;1088138;54;19976;-88
2022/06/07 07:31:53;;;;;;;;;;;;;;;20.73;51.97;99796.75;1087924;54;19946;-89
2022/06/07 07:32:55;;;;;;;;;;;;;;;20.83;52.12;99801.72;1088550;46;19927;-86
2022/06/07 07:33:59;;;;;;;;;;;;;;;20.67;51.57;99803.88;1087899;54;19950;-80
2022/06/07 07:35:01;;;;;;;;;;;;;;;20.78;51.64;99802.38;1089611;39;20506;-90
2022/06/07 07:36:08;;;;;;;;;;;;;;;21.01;51.29;99798.28;1088413;39;20582;-86
2022/06/07 07:37:12;;;;;;;;;;;;;;;20.81;51.39;99796.53;1088918;39;20408;-84